Lutz, FL

2:10 PM EST on January 26, 2015 (GMT -0500)
Alan Archer Weather just north of Tampa, FL | Change Station
CLOSE
Current Station
Personal Weather Station
Location: LUTZ, FL
Elevation: 52 ft
Nearby Weather Stations
Active Advisory: Lake Wind Advisory

Elev 52 ft 28.11 °N, 82.45 °W | Updated 35 seconds ago

Mostly Cloudy
Mostly Cloudy
61.6 °F
Feels Like 61.6 °F
N
7.0
Wind Variable Wind from NE
Gusts 10.0 mph

Today
High -- | Low -- °F
--% Chance of Precip.
Yesterday
High -- | Low -- °F
Precip. -- in
7:19 AM 6:04 PM
Waxing Crescent, 46% visible
Pressure 29.90 in
Visibility 10.0 miles
Clouds Scattered Clouds 3700 ft
Mostly Cloudy 4600 ft
Mostly Cloudy 5000 ft
Dew Point 50 °F
Humidity 65%
Rainfall 0.05 in
Snow Depth Not available.
UV 4 out of 12
Pollen 6.00 out of 12
Air Quality Not available.
Flu Activity Not available.
METAR KVDF 261855Z AUTO 32014G23KT 10SM SCT037 BKN046 BKN050 19/09 A2990 RMK AO2

More Conditions Fewer Conditions

Pressure 29.90 in
Visibility 10.0 miles
Clouds Scattered Clouds 3700 ft
Mostly Cloudy 4600 ft
Mostly Cloudy 5000 ft
Dew Point 50 °F
Humidity 65%
Rainfall 0.05 in
Snow Depth Not available.
UV 4 out of 12
Pollen 6.00 out of 12
Air Quality Not available.
Flu Activity Not available.
METAR KVDF 261855Z AUTO 32014G23KT 10SM SCT037 BKN046 BKN050 19/09 A2990 RMK AO2

More Conditions Fewer Conditions

10-Day Weather Forecast

Almanac

Astronomy

Jan. 26, 2015 Rise Set
Actual Time
Civil Twilight
Nautical Twilight
Astronomical Twilight
Moon
Length of Visible Light
Length of Day
Tomorrow will be .
, % of the Moon is Illuminated

Today's Extremes

State Highs State Lows

Community

WunderPhotos

Upload Photos

1,790,336 photos uploaded!

WunderBlogs® & News

Nearby

Air Quality

  Air Quality AQ Index Pollutant
Not available.

Snow Depth

Station Depth Elevation

Earthquake Activity

City Distance Mag. Time & Date
Minimum magnitude displayed is 2.5.

Coastal Water Temperatures

Place Temperature

Nearby Weather Stations